Time;durP1;ratioP1;P1;durP2;ratioP2;P2;SDS_P1;SDS_P2;PMS_P1;PMS_P2;Temp;Humidity;BMP_temperature;BMP_pressure;BME280_temperature;BME280_humidity;BME280_pressure;Samples;Min_cycle;Max_cycle;Signal;HPM_P1;HPM_P2
2022/09/21 00:00:45;;;;;;;;;9.00;8.33;;;;;16.00;52.99;101729.78;4997237;28;45579;-64
2022/09/21 00:03:10;;;;;;;;;7.00;7.00;;;;;15.98;52.52;101728.97;4995464;28;45812;-65
2022/09/21 00:05:36;;;;;;;;;9.33;8.00;;;;;15.95;52.42;101729.09;5001458;28;45573;-64
2022/09/21 00:08:04;;;;;;;;;7.00;7.00;;;;;15.94;52.25;101723.88;5004477;28;45454;-64
2022/09/21 00:10:29;;;;;;;;;7.00;7.00;;;;;15.91;52.70;101724.84;4996870;28;45543;-65
2022/09/21 00:12:56;;;;;;;;;7.33;7.33;;;;;15.90;52.84;101726.66;4997392;28;45541;-65
2022/09/21 00:15:22;;;;;;;;;8.67;7.33;;;;;15.88;51.79;101725.84;4996852;28;45436;-64
2022/09/21 00:17:52;;;;;;;;;8.67;7.33;;;;;15.87;52.68;101720.59;4995634;28;45540;-65
2022/09/21 00:20:19;;;;;;;;;8.00;7.00;;;;;15.82;52.47;101720.75;4996801;28;45531;-65
2022/09/21 00:22:45;;;;;;;;;5.33;5.33;;;;;15.77;51.92;101717.44;5007076;28;46195;-65
2022/09/21 00:25:10;;;;;;;;;9.33;8.33;;;;;15.75;52.31;101719.28;5016342;28;45462;-65
2022/09/21 00:27:36;;;;;;;;;7.33;7.33;;;;;15.79;52.70;101725.31;5015491;28;45345;-65
2022/09/21 00:30:03;;;;;;;;;6.00;6.00;;;;;15.77;51.93;101722.75;4996359;28;45503;-65
2022/09/21 00:32:32;;;;;;;;;8.00;8.00;;;;;15.74;51.71;101724.63;4996075;28;46080;-65
2022/09/21 00:34:59;;;;;;;;;5.00;5.00;;;;;15.75;51.84;101721.09;4996918;28;45540;-65
2022/09/21 00:37:26;;;;;;;;;6.00;6.00;;;;;15.75;52.95;101724.59;4995940;28;45567;-65
2022/09/21 00:39:52;;;;;;;;;6.00;4.67;;;;;15.59;53.20;101696.91;4996183;28;45517;-65
2022/09/21 00:42:24;;;;;;;;;6.67;6.00;;;;;15.70;52.29;101720.41;5013040;28;46381;-64
2022/09/21 00:44:49;;;;;;;;;7.00;7.00;;;;;15.60;53.67;101701.28;5015699;28;45450;-65
2022/09/21 00:47:20;;;;;;;;;6.67;6.33;;;;;15.70;52.93;101723.03;5015764;28;45493;-65
2022/09/21 00:49:50;;;;;;;;;4.00;4.00;;;;;15.67;53.25;101722.19;5015461;28;45617;-65
2022/09/21 00:52:18;;;;;;;;;6.00;6.00;;;;;15.70;53.19;101729.22;5014212;28;46609;-65
2022/09/21 00:54:57;;;;;;;;;7.00;7.00;;;;;15.67;52.73;101726.66;5015494;28;45438;-65
2022/09/21 00:57:25;;;;;;;;;6.00;6.00;;;;;15.63;52.63;101720.56;5014430;28;45474;-65
2022/09/21 00:59:54;;;;;;;;;6.33;5.00;;;;;15.68;53.28;101725.72;5015601;28;45671;-65
2022/09/21 01:02:20;;;;;;;;;6.33;5.33;;;;;15.63;52.89;101725.88;5015125;28;46326;-65
2022/09/21 01:04:45;;;;;;;;;4.67;4.67;;;;;15.61;53.81;101738.34;4999535;28;45606;-65
2022/09/21 01:07:18;;;;;;;;;6.67;6.67;;;;;15.60;53.40;101728.66;4995636;28;45486;-65
2022/09/21 01:09:48;;;;;;;;;7.00;6.00;;;;;15.57;54.24;101722.63;4995475;28;45543;-65
2022/09/21 01:12:34;;;;;;;;;6.67;6.67;;;;;15.58;53.74;101727.88;4995765;28;46576;-65
2022/09/21 01:15:37;;;;;;;;;6.00;6.00;;;;;15.55;54.46;101727.97;4995369;28;45510;-65
2022/09/21 01:18:21;;;;;;;;;6.00;6.00;;;;;15.54;53.82;101731.53;4953012;28;45503;-65
2022/09/21 01:21:09;;;;;;;;;9.33;6.67;;;;;15.56;54.54;101735.00;4952625;28;45566;-65
2022/09/21 01:23:45;;;;;;;;;7.00;7.00;;;;;15.56;53.96;101736.81;4983676;28;46006;-65
2022/09/21 01:26:13;;;;;;;;;9.67;7.00;;;;;15.52;53.87;101741.34;4995239;28;45571;-65
2022/09/21 01:29:01;;;;;;;;;6.67;6.67;;;;;15.43;55.04;101725.78;4995424;28;45593;-65
2022/09/21 01:31:34;;;;;;;;;6.00;6.00;;;;;15.50;54.90;101739.66;5003109;28;45524;-65
2022/09/21 01:34:06;;;;;;;;;9.67;8.00;;;;;15.45;55.53;101734.56;5013507;28;46513;-65
2022/09/21 01:36:33;;;;;;;;;6.33;6.33;;;;;15.46;54.72;101736.28;5015475;28;45424;-65
2022/09/21 01:39:11;;;;;;;;;8.67;6.00;;;;;15.49;55.11;101751.22;5013829;28;45512;-65
2022/09/21 01:41:40;;;;;;;;;10.00;7.00;;;;;15.41;54.92;101725.84;5015402;28;45594;-64
2022/09/21 01:44:11;;;;;;;;;6.00;5.00;;;;;15.50;55.15;101734.38;5015256;28;46304;-64
2022/09/21 01:46:38;;;;;;;;;4.00;4.00;;;;;15.45;55.00;101734.56;5015471;28;45463;-65
2022/09/21 01:49:13;;;;;;;;;8.00;6.00;;;;;15.43;55.49;101736.41;5015339;28;45381;-65
2022/09/21 01:51:46;;;;;;;;;5.67;5.67;;;;;15.41;54.72;101731.13;4995599;28;45549;-64
2022/09/21 01:54:22;;;;;;;;;6.67;5.33;;;;;15.45;55.38;101738.06;5004347;28;45384;-65
2022/09/21 01:56:54;;;;;;;;;4.67;4.67;;;;;15.41;55.48;101724.97;5014798;28;45479;-64
2022/09/21 01:59:44;;;;;;;;;6.00;6.00;;;;;15.45;54.48;101732.75;5015427;28;45500;-64
2022/09/21 02:02:20;;;;;;;;;5.00;5.00;;;;;15.45;54.92;101746.03;5015473;28;45518;-65
2022/09/21 02:04:46;;;;;;;;;5.00;5.00;;;;;15.41;55.42;101736.44;5013660;28;48238;-64
2022/09/21 02:07:11;;;;;;;;;6.00;6.00;;;;;15.33;55.14;101719.97;5006490;28;45398;-64
2022/09/21 02:09:37;;;;;;;;;5.33;4.33;;;;;15.44;55.05;101735.47;4995527;28;45704;-64
2022/09/21 02:12:03;;;;;;;;;5.67;5.67;;;;;15.36;55.07;101729.59;4996159;28;45548;-64
2022/09/21 02:14:32;;;;;;;;;5.33;5.33;;;;;15.44;54.71;101736.31;4995402;28;45467;-64
2022/09/21 02:17:24;;;;;;;;;5.33;5.00;;;;;15.40;55.41;101740.03;4995318;28;45488;-64
2022/09/21 02:20:08;;;;;;;;;6.00;6.00;;;;;15.39;55.35;101737.41;4995338;28;45461;-64
2022/09/21 02:22:51;;;;;;;;;5.67;5.67;;;;;15.32;56.35;101733.28;5015007;28;45373;-64
2022/09/21 02:25:25;;;;;;;;;7.00;7.00;;;;;15.37;55.51;101739.28;5014574;28;47947;-65
2022/09/21 02:28:15;;;;;;;;;6.00;4.00;;;;;15.35;55.05;101735.81;5015734;28;45431;-64
2022/09/21 02:30:52;;;;;;;;;9.33;7.67;;;;;15.28;55.38;101729.88;5018714;28;45431;-63
2022/09/21 02:33:31;;;;;;;;;7.00;7.00;;;;;15.30;55.41;101735.97;5017346;28;45617;-65
2022/09/21 02:36:30;;;;;;;;;7.00;7.00;;;;;15.31;55.83;101728.88;5007742;28;46021;-64
2022/09/21 02:39:05;;;;;;;;;10.33;9.00;;;;;15.30;55.12;101725.38;4998394;28;45496;-64
2022/09/21 02:41:37;;;;;;;;;7.00;7.00;;;;;15.28;55.75;101726.34;4998410;28;45494;-64
2022/09/21 02:44:17;;;;;;;;;9.33;8.67;;;;;15.27;55.08;101724.63;4998447;28;46079;-64
2022/09/21 02:46:53;;;;;;;;;7.33;7.33;;;;;15.23;55.71;101719.44;4998285;28;46112;-64
2022/09/21 02:49:26;;;;;;;;;7.33;7.00;;;;;15.24;55.78;101720.31;5008379;28;45404;-65
2022/09/21 02:51:55;;;;;;;;;8.67;7.33;;;;;15.23;55.69;101723.88;5018142;28;45496;-64
2022/09/21 02:54:25;;;;;;;;;7.00;7.00;;;;;15.11;56.26;101703.13;5017861;28;45507;-64
2022/09/21 02:56:53;;;;;;;;;9.67;8.67;;;;;15.17;56.25;101710.84;5017531;28;46173;-65
2022/09/21 02:59:22;;;;;;;;;6.67;6.67;;;;;15.17;56.64;101714.34;5017982;28;45415;-64
2022/09/21 03:01:48;;;;;;;;;7.67;7.67;;;;;15.15;55.57;101716.22;5018149;28;45540;-64
2022/09/21 03:04:17;;;;;;;;;5.33;5.33;;;;;15.15;56.79;101710.91;5017331;28;45555;-64
2022/09/21 03:06:42;;;;;;;;;7.00;7.00;;;;;15.16;55.73;101710.00;5016261;28;45587;-64
2022/09/21 03:09:08;;;;;;;;;6.33;6.33;;;;;15.15;56.12;101712.69;5017725;28;45439;-64
2022/09/21 03:11:37;;;;;;;;;6.67;6.67;;;;;15.12;56.26;101708.34;5004410;28;45512;-65
2022/09/21 03:14:07;;;;;;;;;9.00;7.67;;;;;15.13;56.23;101714.53;4998175;28;45422;-64
2022/09/21 03:16:36;;;;;;;;;9.00;9.00;;;;;15.14;57.13;101717.13;5002019;28;47258;-64
2022/09/21 03:19:02;;;;;;;;;9.00;8.33;;;;;15.01;56.10;101692.84;5017479;28;45368;-64
2022/09/21 03:21:28;;;;;;;;;9.00;8.67;;;;;15.15;56.70;101715.31;5017448;28;45526;-63
2022/09/21 03:23:53;;;;;;;;;8.00;8.00;;;;;15.08;56.39;101714.69;5017760;28;45435;-64
2022/09/21 03:26:21;;;;;;;;;8.00;8.00;;;;;15.10;56.95;101715.53;5017357;28;45404;-64
2022/09/21 03:28:49;;;;;;;;;9.33;8.33;;;;;15.09;56.54;101718.22;5017675;28;45534;-64
2022/09/21 03:31:14;;;;;;;;;7.00;7.00;;;;;15.09;56.08;101719.06;5013067;28;45564;-65
2022/09/21 03:33:40;;;;;;;;;7.67;7.67;;;;;15.01;56.21;101715.84;4997474;28;45392;-64
2022/09/21 03:36:05;;;;;;;;;9.00;9.00;;;;;15.06;56.14;101716.53;4997638;28;45437;-64
2022/09/21 03:38:31;;;;;;;;;7.33;7.33;;;;;15.03;56.48;101720.16;4997346;28;45499;-65
2022/09/21 03:40:56;;;;;;;;;8.00;8.00;;;;;15.00;56.50;101703.53;4996757;28;45485;-64
2022/09/21 03:43:22;;;;;;;;;9.00;7.67;;;;;15.03;56.97;101720.16;4997610;28;45656;-64
2022/09/21 03:45:48;;;;;;;;;7.33;7.33;;;;;15.03;56.93;101711.34;4998368;28;46207;-64
2022/09/21 03:48:14;;;;;;;;;9.00;7.67;;;;;14.99;56.83;101712.38;4997286;28;45419;-64
2022/09/21 03:50:39;;;;;;;;;6.33;6.33;;;;;15.00;56.68;101717.63;4996172;28;45520;-64
2022/09/21 03:53:05;;;;;;;;;6.33;6.33;;;;;14.97;56.46;101714.22;4997334;28;45609;-64
2022/09/21 03:55:31;;;;;;;;;5.00;5.00;;;;;14.98;57.08;101727.41;4997291;28;45512;-64
2022/09/21 03:57:56;;;;;;;;;6.33;6.33;;;;;14.96;56.22;101717.78;4997302;28;45519;-64
2022/09/21 04:00:22;;;;;;;;;8.00;8.00;;;;;14.97;56.48;101719.53;5010430;28;45431;-64
2022/09/21 04:02:47;;;;;;;;;13.00;11.00;;;;;14.93;56.87;101712.59;5017300;28;45672;-65
2022/09/21 04:05:15;;;;;;;;;10.00;10.00;;;;;14.95;56.92;101718.72;5016736;28;45563;-64
2022/09/21 04:07:44;;;;;;;;;12.67;11.67;;;;;14.86;57.04;101708.47;5016687;28;45451;-64
2022/09/21 04:10:11;;;;;;;;;13.33;13.33;;;;;14.82;56.39;101712.13;5017070;28;45490;-64
2022/09/21 04:12:38;;;;;;;;;19.33;18.33;;;;;14.85;57.49;101714.66;5012951;28;45470;-65
2022/09/21 04:15:06;;;;;;;;;23.00;20.33;;;;;14.84;56.55;101718.22;4996741;28;46562;-65
2022/09/21 04:17:32;;;;;;;;;22.67;19.67;;;;;14.83;57.25;101725.31;4995494;28;45393;-64
2022/09/21 04:19:58;;;;;;;;;33.00;27.00;;;;;14.76;57.22;101714.06;4996829;28;46229;-65
2022/09/21 04:22:23;;;;;;;;;41.67;34.67;;;;;14.78;57.28;101706.06;4996636;28;45583;-64
2022/09/21 04:24:49;;;;;;;;;42.25;35.50;;;;;14.75;57.10;101712.34;4996663;28;46255;-64
2022/09/21 04:27:14;;;;;;;;;41.25;36.00;;;;;14.80;57.90;101712.16;4999581;28;45587;-65
2022/09/21 04:29:40;;;;;;;;;44.00;34.00;;;;;14.82;56.90;101718.28;5016519;28;45433;-64
2022/09/21 04:32:06;;;;;;;;;28.33;27.33;;;;;14.80;56.98;101715.69;5015413;28;45610;-65
2022/09/21 04:34:31;;;;;;;;;29.33;28.33;;;;;14.73;57.38;101697.41;5010737;28;46016;-65
2022/09/21 04:36:57;;;;;;;;;27.00;25.67;;;;;14.76;57.39;101708.75;5015178;28;45520;-65
2022/09/21 04:39:23;;;;;;;;;38.67;31.33;;;;;14.75;57.52;101712.34;5010818;28;45474;-64
2022/09/21 04:41:49;;;;;;;;;29.00;28.33;;;;;14.71;57.29;101716.00;5012313;28;45420;-64
2022/09/21 04:44:14;;;;;;;;;27.00;25.67;;;;;14.69;58.08;101716.97;5015872;28;45539;-65
2022/09/21 04:46:40;;;;;;;;;24.33;21.67;;;;;14.67;57.71;101719.69;5015759;28;45459;-65
2022/09/21 04:49:06;;;;;;;;;23.67;21.00;;;;;14.62;57.68;101696.94;5015877;28;45510;-65
2022/09/21 04:51:31;;;;;;;;;26.33;23.33;;;;;14.72;57.89;101711.56;5003870;28;45538;-64
2022/09/21 04:53:56;;;;;;;;;23.33;23.33;;;;;14.72;57.64;101728.34;5005706;28;46241;-64
2022/09/21 04:56:22;;;;;;;;;22.33;20.00;;;;;14.63;57.95;101717.19;4995641;28;45550;-64
2022/09/21 04:58:47;;;;;;;;;22.67;22.00;;;;;14.66;57.92;101723.22;5000437;28;45658;-64
2022/09/21 05:01:12;;;;;;;;;18.67;16.67;;;;;14.65;57.84;101725.94;5009608;28;45547;-64
2022/09/21 05:03:38;;;;;;;;;17.67;16.00;;;;;14.60;57.67;101717.28;5015003;28;45561;-64
2022/09/21 05:06:04;;;;;;;;;13.67;13.67;;;;;14.60;57.91;101728.75;4994440;28;45493;-65
2022/09/21 05:11:19;;;;;;;;;11.67;11.67;;;;;14.61;57.17;101725.16;4995967;28;45560;-64
2022/09/21 05:13:45;;;;;;;;;10.67;10.00;;;;;14.51;57.45;101714.00;5000303;28;45549;-65
2022/09/21 05:16:11;;;;;;;;;14.00;12.33;;;;;14.61;57.07;101727.81;5013984;28;45530;-64
2022/09/21 05:18:36;;;;;;;;;14.00;11.33;;;;;14.60;57.52;101719.94;5008344;28;45501;-65
2022/09/21 05:21:03;;;;;;;;;11.33;10.00;;;;;14.61;57.55;101725.16;4995319;28;45588;-65
2022/09/21 05:23:30;;;;;;;;;11.67;11.00;;;;;14.61;57.98;101726.97;4995551;28;46256;-65
2022/09/21 05:25:56;;;;;;;;;9.67;9.67;;;;;14.59;57.99;101719.09;5006485;28;45570;-63
2022/09/21 05:28:22;;;;;;;;;13.00;12.33;;;;;14.59;57.69;101727.03;5006480;28;45618;-65
2022/09/21 05:30:56;;;;;;;;;10.67;10.33;;;;;14.58;57.24;101725.28;5002674;28;45585;-63
2022/09/21 05:33:25;;;;;;;;;10.33;10.33;;;;;14.59;57.57;101729.69;5001359;28;46482;-64
2022/09/21 05:35:58;;;;;;;;;11.00;11.00;;;;;14.57;57.99;101726.22;5000538;28;45557;-64
2022/09/21 05:38:24;;;;;;;;;8.67;8.67;;;;;14.55;57.81;101722.75;5004545;28;45529;-67
2022/09/21 05:40:49;;;;;;;;;10.67;9.33;;;;;14.54;57.79;101728.97;5000124;28;45637;-66
2022/09/21 05:43:16;;;;;;;;;11.00;9.67;;;;;14.54;57.69;101728.97;4996202;28;46189;-66
2022/09/21 05:45:50;;;;;;;;;13.67;8.33;;;;;14.52;57.79;101729.00;5014839;28;45459;-65
2022/09/21 05:48:27;;;;;;;;;9.00;9.00;;;;;14.55;57.64;101733.31;5014871;28;45530;-64
2022/09/21 05:51:04;;;;;;;;;14.33;13.00;;;;;14.54;57.53;101731.63;5014960;28;45491;-64
2022/09/21 05:53:29;;;;;;;;;12.00;11.00;;;;;14.51;57.67;101724.59;4998217;28;45618;-63
2022/09/21 05:55:58;;;;;;;;;10.00;9.00;;;;;14.51;57.50;101727.25;4999909;28;45522;-66
2022/09/21 05:58:36;;;;;;;;;12.00;10.33;;;;;14.45;57.52;101721.28;5014665;28;45415;-66
2022/09/21 06:01:42;;;;;;;;;11.00;11.00;;;;;14.46;58.38;101723.88;5014423;28;45440;-65
2022/09/21 06:04:11;;;;;;;;;12.00;11.00;;;;;14.46;58.16;101723.88;5012980;28;45478;-65
2022/09/21 06:06:37;;;;;;;;;12.00;12.00;;;;;14.48;58.20;101723.81;5012525;28;45552;-64
2022/09/21 06:09:02;;;;;;;;;12.33;11.33;;;;;14.42;58.16;101714.31;5014478;28;45414;-66
2022/09/21 06:11:27;;;;;;;;;12.33;11.67;;;;;14.45;58.95;101721.28;5008496;28;45632;-66
2022/09/21 06:13:53;;;;;;;;;11.67;10.67;;;;;14.46;58.80;101730.97;5008749;28;45504;-69
2022/09/21 06:16:18;;;;;;;;;13.00;13.00;;;;;14.43;58.39;101718.69;5014436;28;45476;-67
2022/09/21 06:18:45;;;;;;;;;11.00;11.00;;;;;14.48;58.74;101727.34;5013168;28;45573;-67
2022/09/21 06:21:10;;;;;;;;;11.00;11.00;;;;;14.47;58.07;101730.03;5013832;28;45486;-67
2022/09/21 06:23:36;;;;;;;;;11.00;9.00;;;;;14.46;58.85;101730.97;5013876;28;46023;-67
2022/09/21 06:26:01;;;;;;;;;12.00;12.00;;;;;14.39;59.22;101718.84;5014060;28;45380;-67
2022/09/21 06:28:27;;;;;;;;;16.33;14.33;;;;;14.43;58.36;101726.66;5014342;28;45464;-67
2022/09/21 06:30:54;;;;;;;;;13.67;12.00;;;;;14.46;57.83;101730.97;5014395;28;45413;-67
2022/09/21 06:33:22;;;;;;;;;14.33;12.33;;;;;14.39;58.57;101727.66;5014010;28;45519;-65
2022/09/21 06:35:58;;;;;;;;;13.67;13.00;;;;;14.46;58.29;101729.19;5013951;28;45637;-66
2022/09/21 06:38:25;;;;;;;;;12.33;12.33;;;;;14.47;57.88;101732.69;5013726;28;45356;-66
2022/09/21 06:40:51;;;;;;;;;11.33;11.33;;;;;14.48;58.12;101737.94;5013998;28;45482;-66
2022/09/21 06:43:17;;;;;;;;;13.00;12.00;;;;;14.50;59.30;101735.22;5013740;28;45572;-68
2022/09/21 06:45:43;;;;;;;;;14.33;13.33;;;;;14.50;58.67;101735.22;5013864;28;45573;-67
2022/09/21 06:48:08;;;;;;;;;16.67;16.67;;;;;14.56;58.35;101737.69;5013798;28;45449;-67
2022/09/21 06:50:34;;;;;;;;;15.67;13.67;;;;;14.53;58.44;101736.03;5013917;28;45564;-68
2022/09/21 06:53:01;;;;;;;;;18.00;15.00;;;;;14.52;59.24;101734.28;5013744;28;46291;-70
2022/09/21 06:55:27;;;;;;;;;18.67;17.67;;;;;14.55;59.55;101741.28;5013658;28;45383;-65
2022/09/21 06:57:53;;;;;;;;;16.67;16.67;;;;;14.61;59.08;101742.84;5013707;28;45521;-69
2022/09/21 07:00:18;;;;;;;;;16.00;15.00;;;;;14.64;58.12;101742.72;5013653;28;45496;-66
2022/09/21 07:02:44;;;;;;;;;16.33;14.67;;;;;14.61;58.51;101735.75;5013581;28;45586;-68
2022/09/21 07:05:10;;;;;;;;;19.00;16.67;;;;;14.70;57.98;101754.00;5013852;28;45469;-67
2022/09/21 07:07:36;;;;;;;;;17.00;15.67;;;;;14.70;57.91;101738.13;5013902;28;45486;-69
2022/09/21 07:10:02;;;;;;;;;17.00;15.00;;;;;14.74;57.98;101733.56;5013693;28;45466;-67
2022/09/21 07:12:28;;;;;;;;;14.67;14.67;;;;;14.76;58.57;101737.03;5014048;28;45482;-67
2022/09/21 07:14:54;;;;;;;;;15.00;15.00;;;;;14.79;58.17;101739.56;5014374;28;45497;-67
2022/09/21 07:17:20;;;;;;;;;18.00;17.33;;;;;14.80;57.93;101733.34;5017025;28;45484;-68
2022/09/21 07:19:46;;;;;;;;;15.67;13.67;;;;;14.77;57.73;101729.00;5017019;28;45485;-67
2022/09/21 07:22:11;;;;;;;;;20.33;19.00;;;;;14.85;57.85;101742.00;5016751;28;45982;-67
2022/09/21 07:24:36;;;;;;;;;19.67;19.67;;;;;14.86;58.61;101738.44;5016608;28;45494;-68
2022/09/21 07:27:02;;;;;;;;;18.33;17.67;;;;;14.91;57.59;101740.91;5016826;28;45577;-66
2022/09/21 07:29:27;;;;;;;;;13.67;13.67;;;;;14.93;58.78;101728.50;5016664;28;45593;-67
2022/09/21 07:31:52;;;;;;;;;18.00;17.33;;;;;14.95;58.96;101731.97;5016531;28;45478;-67
2022/09/21 07:34:18;;;;;;;;;23.67;20.67;;;;;14.94;57.50;101720.50;5016293;28;45457;-69
2022/09/21 07:36:43;;;;;;;;;20.00;18.33;;;;;14.99;58.23;101728.25;5016676;28;45413;-67
2022/09/21 07:39:09;;;;;;;;;16.67;16.33;;;;;15.03;58.26;101730.75;5016512;28;45473;-68
2022/09/21 07:41:35;;;;;;;;;18.00;17.00;;;;;15.03;57.56;101722.81;5016264;28;45507;-67
2022/09/21 07:44:01;;;;;;;;;17.67;17.67;;;;;15.08;58.17;101721.78;5016418;28;45512;-67
2022/09/21 07:46:27;;;;;;;;;20.33;19.00;;;;;15.07;58.14;101726.22;5016571;28;45399;-68
2022/09/21 07:48:53;;;;;;;;;18.33;18.33;;;;;15.12;58.49;101726.03;5016476;28;45581;-68
2022/09/21 07:51:19;;;;;;;;;17.67;17.67;;;;;15.06;57.47;101708.59;5016157;28;46005;-66
2022/09/21 07:53:45;;;;;;;;;14.67;14.00;;;;;15.19;56.90;101725.78;5016037;28;45463;-68
2022/09/21 07:56:13;;;;;;;;;21.67;19.00;;;;;15.17;56.66;101706.41;5016438;28;45446;-68
2022/09/21 08:01:24;;;;;;;;;20.67;20.67;;;;;15.31;55.98;101711.19;5016068;28;45513;-66
2022/09/21 08:03:51;;;;;;;;;16.00;15.67;;;;;15.33;56.06;101714.66;5016096;28;45485;-66
2022/09/21 08:06:18;;;;;;;;;15.33;15.33;;;;;15.38;56.96;101710.03;5014933;28;45453;-66
2022/09/21 08:08:46;;;;;;;;;13.33;12.33;;;;;15.35;56.41;101704.88;5015981;28;45466;-68
2022/09/21 08:11:13;;;;;;;;;14.33;14.33;;;;;15.42;55.10;101716.09;5015785;28;45576;-67
2022/09/21 08:13:38;;;;;;;;;22.00;20.33;;;;;15.43;55.66;101715.19;5016567;28;45821;-69
2022/09/21 08:16:04;;;;;;;;;25.33;23.00;;;;;15.44;56.21;101716.91;5015617;28;45481;-67
2022/09/21 08:18:29;;;;;;;;;20.33;18.67;;;;;15.46;56.47;101718.56;5015994;28;45479;-65
2022/09/21 08:20:58;;;;;;;;;13.00;13.00;;;;;15.50;54.82;101711.38;5015908;28;45507;-66
2022/09/21 08:23:27;;;;;;;;;13.00;13.00;;;;;15.58;54.47;101721.69;5015830;28;46267;-66
2022/09/21 08:25:57;;;;;;;;;13.33;13.00;;;;;15.61;55.44;101721.59;5015436;28;45500;-67
2022/09/21 08:28:22;;;;;;;;;14.67;14.00;;;;;15.65;54.41;101721.38;5015672;28;45459;-66
2022/09/21 08:30:47;;;;;;;;;17.33;17.00;;;;;15.68;55.09;101729.25;5015598;28;46216;-67
2022/09/21 08:33:13;;;;;;;;;14.67;14.67;;;;;15.73;54.08;101717.63;5015820;28;45837;-67
2022/09/21 08:35:38;;;;;;;;;16.33;15.00;;;;;15.74;53.66;101727.28;5015744;28;45474;-66
2022/09/21 08:38:04;;;;;;;;;13.67;13.67;;;;;15.75;53.87;101723.72;5014094;28;45629;-67
2022/09/21 08:40:29;;;;;;;;;11.67;10.33;;;;;15.74;54.40;101714.88;5015199;28;45470;-67
2022/09/21 08:43:06;;;;;;;;;12.00;12.00;;;;;15.73;53.49;101714.97;5015311;28;45459;-66
2022/09/21 08:45:41;;;;;;;;;18.00;18.00;;;;;15.83;54.19;101727.81;5015580;28;45469;-67
2022/09/21 08:48:27;;;;;;;;;16.67;16.67;;;;;15.87;53.61;101725.88;5015306;28;45594;-67
2022/09/21 08:50:56;;;;;;;;;14.67;13.67;;;;;15.88;53.07;101719.69;5015295;28;45515;-65
2022/09/21 08:53:30;;;;;;;;;15.67;15.67;;;;;15.90;52.77;101721.34;5015129;28;45463;-68
2022/09/21 08:55:56;;;;;;;;;13.33;12.67;;;;;15.92;53.09;101717.75;5015308;28;45400;-68
2022/09/21 08:58:30;;;;;;;;;15.33;15.33;;;;;15.93;53.09;101722.97;5015182;28;45375;-69
2022/09/21 09:01:16;;;;;;;;;20.67;19.67;;;;;15.95;53.33;101721.13;5015116;28;45555;-67
2022/09/21 09:04:20;;;;;;;;;16.67;14.00;;;;;15.96;53.99;101719.34;5015277;28;45383;-68
2022/09/21 09:06:58;;;;;;;;;14.00;12.33;;;;;16.00;52.52;101721.81;5006515;28;45516;-67
2022/09/21 09:10:02;;;;;;;;;13.00;12.33;;;;;16.05;54.25;101725.16;5014995;28;45660;-66
2022/09/21 09:12:40;;;;;;;;;13.00;13.00;;;;;16.09;53.80;101728.53;5006831;28;46199;-67
2022/09/21 09:15:41;;;;;;;;;14.00;14.00;;;;;16.01;52.29;101710.31;5014934;28;45550;-67
2022/09/21 09:18:42;;;;;;;;;11.00;11.00;;;;;16.16;52.69;101729.19;5001004;28;45535;-66
2022/09/21 09:21:15;;;;;;;;;13.00;13.00;;;;;16.20;52.73;101730.75;5014782;28;45421;-68
2022/09/21 09:23:47;;;;;;;;;14.00;14.00;;;;;16.20;53.15;101726.34;5014318;28;46665;-67
2022/09/21 09:26:28;;;;;;;;;11.00;10.33;;;;;16.20;52.74;101729.00;5014963;28;45458;-66
2022/09/21 09:29:00;;;;;;;;;12.33;11.33;;;;;16.24;52.31;101724.41;5013458;28;45551;-68
2022/09/21 09:31:34;;;;;;;;;13.67;11.33;;;;;16.27;52.52;101726.94;5014879;28;45490;-68
2022/09/21 09:34:15;;;;;;;;;15.33;13.67;;;;;16.29;52.31;101723.31;5014595;28;46162;-68
2022/09/21 09:36:47;;;;;;;;;14.00;14.00;;;;;16.24;51.65;101712.00;5014409;28;45496;-67
2022/09/21 09:39:15;;;;;;;;;10.00;10.00;;;;;16.33;51.51;101718.72;5014164;28;45464;-67
2022/09/21 09:42:08;;;;;;;;;10.00;10.00;;;;;16.35;51.61;101730.16;5014498;28;45514;-66
2022/09/21 09:44:47;;;;;;;;;12.33;11.67;;;;;16.30;52.50;101714.41;5014447;28;47186;-68
2022/09/21 09:47:40;;;;;;;;;11.33;11.33;;;;;16.38;52.92;101715.88;5014729;28;45476;-68
2022/09/21 09:50:20;;;;;;;;;8.33;8.33;;;;;16.43;51.10;101725.38;5014827;28;45478;-66
2022/09/21 09:52:48;;;;;;;;;11.00;11.00;;;;;16.47;51.70;101721.69;5014603;28;45500;-67
2022/09/21 09:55:25;;;;;;;;;12.67;11.00;;;;;16.41;51.90;101708.63;5014437;28;46394;-66
2022/09/21 09:57:53;;;;;;;;;11.67;10.67;;;;;16.58;51.03;101723.88;5014378;28;45627;-68
2022/09/21 10:00:20;;;;;;;;;10.00;10.00;;;;;16.58;51.09;101715.91;5014467;28;45624;-66
2022/09/21 10:02:57;;;;;;;;;12.33;12.33;;;;;16.71;50.92;101721.53;5014380;28;45597;-68
2022/09/21 10:05:34;;;;;;;;;10.67;10.67;;;;;16.75;50.57;101724.00;5014293;28;46369;-67
2022/09/21 10:08:00;;;;;;;;;11.00;11.00;;;;;16.82;51.04;101719.34;5014239;28;45428;-67
2022/09/21 10:10:29;;;;;;;;;8.67;8.67;;;;;16.87;49.71;101717.34;5014907;28;45463;-66
2022/09/21 10:13:32;;;;;;;;;12.67;11.67;;;;;16.82;50.37;101700.75;5014443;28;45574;-66
2022/09/21 10:16:04;;;;;;;;;14.33;12.67;;;;;16.89;50.60;101707.50;4991431;28;46118;-67
2022/09/21 10:18:39;;;;;;;;;11.00;9.33;;;;;16.92;49.97;101710.00;5005592;28;45421;-67
2022/09/21 10:21:08;;;;;;;;;9.67;8.00;;;;;16.87;50.35;101688.13;5012518;28;45566;-67
2022/09/21 10:23:36;;;;;;;;;11.00;8.00;;;;;16.93;49.39;101697.63;5013735;28;45471;-67
2022/09/21 10:26:09;;;;;;;;;8.67;8.67;;;;;16.99;49.12;101708.81;5013768;28;45542;-67
2022/09/21 10:28:35;;;;;;;;;9.00;9.00;;;;;17.00;49.54;101712.34;5013768;28;45493;-66
2022/09/21 10:31:15;;;;;;;;;10.00;9.67;;;;;17.00;50.07;101707.03;5013839;28;45453;-66
2022/09/21 10:34:00;;;;;;;;;11.67;10.67;;;;;17.00;49.61;101704.38;5013543;28;45496;-67
2022/09/21 10:36:33;;;;;;;;;9.67;7.00;;;;;17.05;49.79;101706.81;5009322;28;45509;-68
2022/09/21 10:39:17;;;;;;;;;8.67;7.67;;;;;17.10;49.17;101700.38;5013735;28;45545;-68
2022/09/21 10:41:51;;;;;;;;;8.67;8.00;;;;;17.14;49.34;101703.75;5013934;28;45454;-66
2022/09/21 10:44:21;;;;;;;;;8.00;8.00;;;;;17.13;48.73;101696.72;5013780;28;45543;-68
2022/09/21 10:46:48;;;;;;;;;12.67;11.67;;;;;17.07;49.34;101687.22;5013345;28;45909;-65
2022/09/21 10:49:23;;;;;;;;;14.00;12.67;;;;;17.11;49.27;101693.25;5013260;28;45454;-67
2022/09/21 10:51:52;;;;;;;;;11.33;10.00;;;;;17.15;48.85;101682.41;5015536;28;45490;-67
2022/09/21 10:54:26;;;;;;;;;10.00;9.00;;;;;17.23;48.87;101703.34;5017106;28;45579;-66
2022/09/21 10:56:55;;;;;;;;;6.00;6.00;;;;;17.25;48.72;101695.28;5016603;28;45492;-66
2022/09/21 10:59:24;;;;;;;;;7.00;7.00;;;;;17.26;48.57;101691.69;5016661;28;45439;-68
2022/09/21 11:01:52;;;;;;;;;8.00;8.00;;;;;17.27;47.96;101685.44;5016576;28;45584;-67
2022/09/21 11:04:30;;;;;;;;;8.00;8.00;;;;;17.28;48.44;101690.69;5007304;28;45567;-67
2022/09/21 11:07:11;;;;;;;;;12.67;11.33;;;;;17.14;48.52;101674.50;5003755;28;45567;-68
2022/09/21 11:09:58;;;;;;;;;8.33;8.33;;;;;17.23;48.47;101679.41;5007519;28;45445;-69
2022/09/21 11:12:50;;;;;;;;;6.67;6.67;;;;;17.29;47.96;101679.13;4997329;28;45461;-68
2022/09/21 11:15:24;;;;;;;;;23.00;22.00;;;;;17.38;48.05;101688.47;5005604;28;45471;-69
2022/09/21 11:18:04;;;;;;;;;52.50;42.00;;;;;17.41;47.61;101685.69;5012596;28;45562;-69
2022/09/21 11:20:41;;;;;;;;;11.33;11.33;;;;;17.42;47.96;101682.09;4996681;28;45461;-69
2022/09/21 11:23:10;;;;;;;;;9.67;8.00;;;;;17.39;47.62;101676.91;4997107;28;45502;-70
2022/09/21 11:26:14;;;;;;;;;8.33;7.67;;;;;17.38;47.56;101677.81;4995157;28;45631;-69
2022/09/21 11:29:17;;;;;;;;;14.00;12.00;;;;;17.40;47.36;101679.47;4989586;28;46135;-69
2022/09/21 11:32:15;;;;;;;;;9.67;9.67;;;;;17.42;47.09;101666.97;5016536;28;45446;-70
2022/09/21 11:35:21;;;;;;;;;7.67;7.67;;;;;17.49;46.95;101672.00;5016628;28;45411;-71
2022/09/21 11:37:49;;;;;;;;;13.00;11.67;;;;;17.48;46.66;101660.50;5016302;28;45522;-71
2022/09/21 11:40:39;;;;;;;;;8.00;7.00;;;;;17.54;46.92;101659.34;5016670;28;45468;-68